Time;durP1;ratioP1;P1;durP2;ratioP2;P2;SDS_P1;SDS_P2;PMS_P1;PMS_P2;Temp;Humidity;BMP_temperature;BMP_pressure;BME280_temperature;BME280_humidity;BME280_pressure;Samples;Min_cycle;Max_cycle;Signal;HPM_P1;HPM_P2
2021/12/30 00:02:14;;;;;;;8.52;7.63;;;8.60;99.90;;;;;;4613620;28;10000191;-74
2021/12/30 00:04:40;;;;;;;9.85;6.88;;;8.60;99.90;;;;;;4953098;28;20562;-74
2021/12/30 00:07:08;;;;;;;7.82;6.85;;;8.60;99.90;;;;;;4961963;28;20141;-74
2021/12/30 00:09:35;;;;;;;10.25;6.38;;;8.60;99.90;;;;;;4961150;28;20476;-74
2021/12/30 00:12:00;;;;;;;7.75;6.78;;;8.60;99.90;;;;;;4960775;28;20118;-74
2021/12/30 00:14:26;;;;;;;9.50;6.90;;;8.60;99.90;;;;;;4954237;28;20114;-74
2021/12/30 00:16:51;;;;;;;8.13;6.65;;;8.60;99.90;;;;;;4961225;28;20054;-74
2021/12/30 00:19:17;;;;;;;9.10;7.43;;;8.60;99.90;;;;;;4963806;28;20033;-74
2021/12/30 00:21:43;;;;;;;8.98;7.20;;;8.60;99.90;;;;;;4960233;28;20058;-74
2021/12/30 00:24:10;;;;;;;8.90;7.70;;;8.60;99.90;;;;;;4965394;28;20026;-74
2021/12/30 00:26:35;;;;;;;8.98;7.28;;;8.60;99.90;;;;;;4953410;28;20033;-73
2021/12/30 00:29:01;;;;;;;9.90;7.55;;;8.60;99.90;;;;;;4962487;28;20023;-73
2021/12/30 00:31:27;;;;;;;7.90;6.95;;;8.60;99.90;;;;;;4958932;28;20026;-74
2021/12/30 00:33:52;;;;;;;9.05;7.65;;;8.60;99.90;;;;;;4965321;28;20055;-73
2021/12/30 00:36:19;;;;;;;8.00;6.95;;;8.60;99.90;;;;;;4969675;28;20645;-74
2021/12/30 00:38:45;;;;;;;9.55;7.03;;;8.60;99.90;;;;;;4956073;28;20391;-74
2021/12/30 00:41:11;;;;;;;10.45;7.35;;;8.60;99.90;;;;;;4969737;28;20050;-74
2021/12/30 00:43:37;;;;;;;8.90;7.50;;;8.60;99.90;;;;;;4969767;28;20062;-74
2021/12/30 00:46:04;;;;;;;9.07;7.45;;;8.60;99.90;;;;;;4963614;28;20027;-74
2021/12/30 00:48:30;;;;;;;10.93;7.93;;;8.60;99.90;;;;;;4966383;28;20029;-74
2021/12/30 00:50:56;;;;;;;10.98;7.75;;;8.60;99.90;;;;;;4967203;28;20022;-73
2021/12/30 00:53:21;;;;;;;10.02;7.70;;;8.60;99.90;;;;;;4965635;28;20022;-74
2021/12/30 00:55:47;;;;;;;10.88;8.77;;;8.70;99.90;;;;;;4961509;28;20437;-74
2021/12/30 00:58:13;;;;;;;10.95;8.10;;;8.70;99.90;;;;;;4961514;28;20512;-74
2021/12/30 01:00:42;;;;;;;10.70;8.65;;;8.60;99.90;;;;;;4955414;28;20062;-74
2021/12/30 01:03:08;;;;;;;12.02;9.02;;;8.70;99.90;;;;;;4959987;28;20046;-74
2021/12/30 01:05:34;;;;;;;12.43;9.32;;;8.70;99.90;;;;;;4963604;28;20035;-73
2021/12/30 01:08:02;;;;;;;11.98;9.20;;;8.70;99.90;;;;;;4965739;28;20047;-73
2021/12/30 01:10:29;;;;;;;11.68;8.55;;;8.70;99.90;;;;;;4962772;28;20027;-74
2021/12/30 01:12:59;;;;;;;11.32;9.05;;;8.70;99.90;;;;;;4967430;28;20491;-74
2021/12/30 01:15:34;;;;;;;16.65;8.80;;;8.70;99.90;;;;;;4959630;28;20045;-74
2021/12/30 01:18:23;;;;;;;13.32;9.15;;;8.70;99.90;;;;;;4958891;28;20039;-74
2021/12/30 01:20:47;;;;;;;9.70;8.48;;;8.70;99.90;;;;;;4956233;28;20031;-74
2021/12/30 01:23:13;;;;;;;13.43;9.45;;;8.80;99.90;;;;;;4959125;28;20022;-74
2021/12/30 01:25:39;;;;;;;13.88;9.38;;;8.80;99.90;;;;;;4962261;28;20097;-74
2021/12/30 01:28:04;;;;;;;17.67;10.35;;;8.80;99.90;;;;;;4966391;28;20578;-74
2021/12/30 01:30:30;;;;;;;12.20;9.27;;;8.80;99.90;;;;;;4960243;28;20027;-74
2021/12/30 01:32:56;;;;;;;12.45;9.43;;;8.80;99.90;;;;;;4959021;28;20019;-74
2021/12/30 01:35:25;;;;;;;12.93;9.52;;;8.90;99.90;;;;;;4959453;28;20092;-74
2021/12/30 01:38:00;;;;;;;12.35;9.93;;;8.90;99.90;;;;;;4965993;28;20027;-74
2021/12/30 01:40:27;;;;;;;12.07;9.90;;;8.90;99.90;;;;;;4967343;28;20054;-74
2021/12/30 01:42:52;;;;;;;16.75;10.38;;;8.80;99.90;;;;;;4972681;28;20068;-74
2021/12/30 01:45:19;;;;;;;15.35;9.55;;;8.90;99.90;;;;;;4966497;28;20119;-74
2021/12/30 01:47:53;;;;;;;15.30;10.05;;;8.90;99.90;;;;;;4966879;28;20023;-74
2021/12/30 01:50:20;;;;;;;13.70;9.63;;;8.90;99.90;;;;;;4961840;28;20032;-74
2021/12/30 01:52:46;;;;;;;16.13;10.20;;;8.80;99.90;;;;;;4961707;28;20035;-74
2021/12/30 01:55:13;;;;;;;15.18;9.77;;;8.80;99.90;;;;;;4966901;28;20372;-74
2021/12/30 01:57:39;;;;;;;16.40;9.90;;;8.80;99.90;;;;;;4967276;28;20117;-74
2021/12/30 02:00:09;;;;;;;14.85;9.93;;;8.80;99.90;;;;;;4964362;28;20122;-74
2021/12/30 02:02:35;;;;;;;16.67;10.30;;;8.90;99.90;;;;;;4968606;28;20038;-74
2021/12/30 02:05:01;;;;;;;14.60;9.35;;;8.90;99.90;;;;;;4961225;28;20035;-74
2021/12/30 02:07:26;;;;;;;12.98;9.13;;;8.90;99.90;;;;;;4959571;28;20094;-74
2021/12/30 02:09:57;;;;;;;13.18;9.30;;;9.00;99.90;;;;;;4955086;28;20403;-74
2021/12/30 02:12:23;;;;;;;15.82;10.00;;;9.00;99.90;;;;;;4959490;28;20035;-74
2021/12/30 02:14:48;;;;;;;15.95;9.57;;;9.00;99.90;;;;;;4962605;28;20113;-74
2021/12/30 02:17:14;;;;;;;17.10;9.68;;;9.00;99.90;;;;;;4967539;28;20125;-74
2021/12/30 02:19:40;;;;;;;16.77;9.70;;;9.00;99.90;;;;;;4963075;28;20127;-75
2021/12/30 02:22:05;;;;;;;17.15;10.23;;;9.00;99.90;;;;;;4958426;28;20106;-74
2021/12/30 02:24:31;;;;;;;19.48;10.70;;;9.00;99.90;;;;;;4963674;28;20031;-74
2021/12/30 02:26:57;;;;;;;18.17;9.98;;;9.00;99.90;;;;;;4963819;28;20054;-74
2021/12/30 02:29:22;;;;;;;16.70;10.68;;;9.00;99.90;;;;;;4963702;28;20618;-74
2021/12/30 02:31:48;;;;;;;19.95;10.98;;;9.00;99.90;;;;;;4966288;28;20026;-74
2021/12/30 02:34:16;;;;;;;21.58;10.85;;;9.00;99.90;;;;;;4964688;28;20033;-74
2021/12/30 02:36:42;;;;;;;17.90;10.05;;;;;;;;;;4958104;28;20050;-74
2021/12/30 02:39:11;;;;;;;17.80;10.45;;;9.10;99.90;;;;;;4962827;28;20530;-74
2021/12/30 02:41:38;;;;;;;18.70;10.45;;;9.10;99.90;;;;;;4961058;28;20487;-74
2021/12/30 02:44:05;;;;;;;18.02;9.98;;;9.10;99.90;;;;;;4962772;28;20043;-74
2021/12/30 02:46:32;;;;;;;20.38;9.70;;;9.20;99.90;;;;;;4966976;28;20031;-74
2021/12/30 02:48:58;;;;;;;19.80;9.98;;;9.20;99.90;;;;;;4963229;28;20030;-74
2021/12/30 02:51:25;;;;;;;19.13;10.05;;;9.20;99.90;;;;;;4964320;28;20049;-75
2021/12/30 02:53:51;;;;;;;20.20;10.63;;;9.20;99.90;;;;;;4966636;28;20015;-74
2021/12/30 02:56:18;;;;;;;18.77;10.35;;;9.20;99.90;;;;;;4963302;28;20110;-74
2021/12/30 02:58:44;;;;;;;20.40;10.57;;;9.20;99.90;;;;;;4963692;28;20487;-75
2021/12/30 03:01:12;;;;;;;19.73;10.70;;;9.20;99.90;;;;;;4956243;28;20031;-74
2021/12/30 03:03:38;;;;;;;27.58;11.88;;;9.10;99.90;;;;;;4960888;28;20045;-74
2021/12/30 03:06:06;;;;;;;18.95;10.40;;;9.10;99.90;;;;;;4960546;28;20089;-74
2021/12/30 03:08:32;;;;;;;18.02;10.05;;;9.10;99.90;;;;;;4957637;28;20042;-74
2021/12/30 03:10:59;;;;;;;21.23;10.75;;;9.10;99.90;;;;;;4961303;28;20034;-74
2021/12/30 03:13:32;;;;;;;18.13;10.10;;;9.20;99.90;;;;;;4962147;28;20115;-74
2021/12/30 03:16:03;;;;;;;23.48;11.02;;;9.10;99.90;;;;;;4958187;28;20039;-74
2021/12/30 03:18:30;;;;;;;23.45;11.20;;;9.10;99.90;;;;;;4965749;28;20110;-74
2021/12/30 03:20:56;;;;;;;22.17;11.02;;;9.10;99.90;;;;;;4962161;28;20522;-74
2021/12/30 03:23:21;;;;;;;23.70;9.90;;;9.10;99.90;;;;;;4966318;28;20023;-74
2021/12/30 03:25:47;;;;;;;23.77;11.45;;;9.10;99.90;;;;;;4966391;28;20062;-74
2021/12/30 03:28:13;;;;;;;22.77;11.63;;;9.10;99.90;;;;;;4965594;28;20415;-74
2021/12/30 03:30:38;;;;;;;23.05;10.88;;;9.10;99.90;;;;;;4962602;28;20670;-74
2021/12/30 03:33:04;;;;;;;23.42;12.20;;;9.00;99.90;;;;;;4962351;28;20127;-75
2021/12/30 03:35:30;;;;;;;26.50;12.18;;;9.10;99.90;;;;;;4965717;28;20538;-74
2021/12/30 03:37:56;;;;;;;25.45;12.10;;;9.10;99.90;;;;;;4964327;28;20027;-74
2021/12/30 03:40:22;;;;;;;20.98;11.68;;;9.10;99.90;;;;;;4963321;28;20061;-74
2021/12/30 03:42:48;;;;;;;22.77;11.82;;;9.10;99.90;;;;;;4963986;28;20479;-74
2021/12/30 03:45:14;;;;;;;25.58;11.95;;;9.20;99.90;;;;;;4958578;28;20402;-73
2021/12/30 03:47:46;;;;;;;19.75;11.25;;;9.20;99.90;;;;;;4966949;28;20046;-73
2021/12/30 03:50:20;;;;;;;19.88;10.88;;;9.20;99.90;;;;;;4962303;28;20027;-74
2021/12/30 03:52:54;;;;;;;21.30;11.68;;;9.20;99.90;;;;;;4960432;28;20050;-74
2021/12/30 03:55:21;;;;;;;25.92;10.43;;;9.10;99.90;;;;;;4965707;28;20026;-73
2021/12/30 03:57:49;;;;;;;23.63;11.85;;;9.10;99.90;;;;;;4961830;28;20042;-74
2021/12/30 04:00:16;;;;;;;21.02;11.27;;;9.10;99.90;;;;;;4964585;28;20116;-74
2021/12/30 04:02:42;;;;;;;27.35;11.02;;;9.10;99.90;;;;;;4968406;28;20029;-73
2021/12/30 04:05:09;;;;;;;24.98;11.35;;;9.10;99.90;;;;;;4965491;28;20035;-73
2021/12/30 04:07:35;;;;;;;23.52;10.60;;;9.10;99.90;;;;;;4960467;28;20083;-73
2021/12/30 04:10:02;;;;;;;28.00;12.10;;;9.10;99.90;;;;;;4960686;28;20035;-73
2021/12/30 04:12:28;;;;;;;24.35;11.02;;;9.10;99.90;;;;;;4964936;28;20031;-74
2021/12/30 04:14:53;;;;;;;24.58;11.52;;;9.10;99.90;;;;;;4965684;28;20189;-74
2021/12/30 04:17:22;;;;;;;29.60;12.10;;;9.10;99.90;;;;;;4968957;28;20626;-73
2021/12/30 04:19:49;;;;;;;27.35;11.68;;;9.10;99.90;;;;;;4963785;28;20106;-73
2021/12/30 04:22:18;;;;;;;28.52;13.25;;;9.10;99.90;;;;;;4967468;28;20027;-74
2021/12/30 04:24:46;;;;;;;29.95;12.23;;;9.10;99.90;;;;;;4961854;28;20035;-74
2021/12/30 04:27:12;;;;;;;26.30;12.85;;;9.20;99.90;;;;;;4964506;28;20034;-74
2021/12/30 04:29:38;;;;;;;30.67;13.23;;;9.10;99.90;;;;;;4967344;28;20027;-73
2021/12/30 04:32:03;;;;;;;29.75;12.35;;;9.20;99.90;;;;;;4961521;28;20220;-73
2021/12/30 04:34:29;;;;;;;31.52;12.18;;;9.20;99.90;;;;;;4966121;28;20026;-73
2021/12/30 04:36:58;;;;;;;31.27;12.25;;;9.20;99.90;;;;;;4961157;28;20086;-74
2021/12/30 04:39:29;;;;;;;35.65;12.40;;;9.20;99.90;;;;;;4970875;28;20109;-73
2021/12/30 04:41:55;;;;;;;30.70;11.57;;;9.20;99.90;;;;;;4969046;28;20043;-74
2021/12/30 04:44:21;;;;;;;30.67;11.80;;;9.20;99.90;;;;;;4957494;28;20459;-73
2021/12/30 04:46:47;;;;;;;31.08;12.00;;;9.20;99.90;;;;;;4964115;28;20037;-73
2021/12/30 04:49:12;;;;;;;30.35;11.32;;;9.20;99.90;;;;;;4957744;28;20018;-74
2021/12/30 04:51:38;;;;;;;26.58;11.52;;;9.20;99.90;;;;;;4960428;28;20547;-73
2021/12/30 04:54:04;;;;;;;30.17;12.15;;;9.20;99.90;;;;;;4966811;28;20111;-73
2021/12/30 04:56:29;;;;;;;28.55;11.75;;;9.20;99.90;;;;;;4966897;28;20031;-73
2021/12/30 04:58:55;;;;;;;25.65;11.38;;;9.20;99.90;;;;;;4968137;28;20031;-73
2021/12/30 05:01:21;;;;;;;25.48;11.13;;;9.20;99.90;;;;;;4956804;28;20034;-73
2021/12/30 05:03:47;;;;;;;30.50;11.73;;;9.20;99.90;;;;;;4959728;28;20446;-73
2021/12/30 05:06:12;;;;;;;31.23;11.57;;;9.20;99.90;;;;;;4962680;28;20033;-73
2021/12/30 05:08:38;;;;;;;28.10;12.00;;;9.20;99.90;;;;;;4965433;28;20039;-74
2021/12/30 05:11:07;;;;;;;30.35;11.02;;;9.20;99.90;;;;;;4964405;28;20046;-73
2021/12/30 05:13:33;;;;;;;25.17;10.73;;;9.20;99.90;;;;;;4966055;28;20024;-73
2021/12/30 05:15:58;;;;;;;24.58;9.85;;;9.20;99.90;;;;;;4964290;28;20089;-73
2021/12/30 05:18:30;;;;;;;31.70;9.70;;;9.20;99.90;;;;;;4964117;28;20514;-73
2021/12/30 05:20:58;;;;;;;26.58;8.85;;;9.20;99.90;;;;;;4959813;28;20038;-73
2021/12/30 05:23:23;;;;;;;31.30;8.88;;;9.20;99.90;;;;;;4966063;28;20031;-74
2021/12/30 05:25:49;;;;;;;25.77;8.63;;;9.20;99.90;;;;;;4958698;28;20031;-73
2021/12/30 05:28:14;;;;;;;30.02;9.27;;;9.20;99.90;;;;;;4960772;28;20054;-74
2021/12/30 05:30:40;;;;;;;27.73;8.55;;;9.20;99.90;;;;;;4960940;28;20060;-74
2021/12/30 05:33:06;;;;;;;28.38;8.75;;;9.20;99.90;;;;;;4963177;28;20039;-73
2021/12/30 05:35:31;;;;;;;29.75;8.23;;;9.20;99.90;;;;;;4963045;28;20023;-74
2021/12/30 05:37:59;;;;;;;31.35;7.50;;;9.20;99.90;;;;;;4966389;28;20642;-74
2021/12/30 05:40:24;;;;;;;23.80;7.40;;;9.20;99.90;;;;;;4955898;28;20035;-73
2021/12/30 05:42:50;;;;;;;28.35;7.78;;;9.20;99.90;;;;;;4964326;28;20023;-74
2021/12/30 05:45:17;;;;;;;21.33;6.95;;;9.20;99.90;;;;;;4965610;28;20554;-74
2021/12/30 05:47:47;;;;;;;24.85;7.50;;;9.30;99.90;;;;;;4961920;28;20682;-74
2021/12/30 05:50:16;;;;;;;27.65;7.53;;;9.20;99.90;;;;;;4965101;28;20030;-73
2021/12/30 05:52:41;;;;;;;30.52;7.40;;;9.20;99.90;;;;;;4957324;28;20031;-74
2021/12/30 05:55:07;;;;;;;28.08;7.35;;;9.20;99.90;;;;;;4964069;28;20030;-74
2021/12/30 05:57:33;;;;;;;26.08;6.68;;;9.20;99.90;;;;;;4960367;28;20034;-73
2021/12/30 06:00:00;;;;;;;26.33;7.15;;;9.20;99.90;;;;;;4965605;28;20034;-73
2021/12/30 06:02:26;;;;;;;22.52;6.35;;;9.20;99.90;;;;;;4955632;28;20035;-73
2021/12/30 06:04:52;;;;;;;21.20;6.05;;;9.20;99.90;;;;;;4957401;28;20035;-73
2021/12/30 06:07:17;;;;;;;28.92;6.93;;;9.20;99.90;;;;;;4959813;28;20051;-73
2021/12/30 06:09:43;;;;;;;27.00;7.15;;;9.20;99.90;;;;;;4961139;28;20031;-74
2021/12/30 06:12:09;;;;;;;27.45;6.72;;;9.20;99.90;;;;;;4967993;28;20081;-73
2021/12/30 06:14:34;;;;;;;25.33;7.05;;;9.20;99.90;;;;;;4964074;28;20026;-73
2021/12/30 06:17:00;;;;;;;27.40;6.25;;;9.20;99.90;;;;;;4962934;28;20030;-73
2021/12/30 06:19:26;;;;;;;24.38;7.05;;;9.20;99.90;;;;;;4958069;28;20030;-73
2021/12/30 06:21:51;;;;;;;30.33;6.30;;;9.20;99.90;;;;;;4963053;28;20039;-73
2021/12/30 06:24:17;;;;;;;28.92;6.10;;;9.20;99.90;;;;;;4965820;28;20042;-73
2021/12/30 06:26:43;;;;;;;25.25;6.30;;;9.20;99.90;;;;;;4948591;28;20031;-73
2021/12/30 06:29:09;;;;;;;32.00;6.97;;;9.20;99.90;;;;;;4956423;28;20058;-73
2021/12/30 06:31:37;;;;;;;34.67;6.68;;;9.20;99.90;;;;;;4962141;28;20061;-72
2021/12/30 06:34:02;;;;;;;22.92;5.88;;;9.20;99.90;;;;;;4955691;28;20526;-73
2021/12/30 06:36:28;;;;;;;21.52;6.07;;;9.20;99.90;;;;;;4960699;28;20030;-74
2021/12/30 06:38:54;;;;;;;26.55;6.10;;;9.20;99.90;;;;;;4963136;28;20080;-73
2021/12/30 06:41:20;;;;;;;27.48;6.35;;;9.30;99.90;;;;;;4960904;28;20104;-73
2021/12/30 06:43:45;;;;;;;23.38;5.68;;;9.20;99.90;;;;;;4965081;28;20493;-74
2021/12/30 06:46:11;;;;;;;19.27;5.35;;;9.30;99.90;;;;;;4962274;28;20498;-73
2021/12/30 06:48:38;;;;;;;26.15;5.72;;;9.30;99.90;;;;;;4958003;28;20030;-73
2021/12/30 06:51:05;;;;;;;27.42;5.68;;;9.30;99.90;;;;;;4962933;28;20023;-73
2021/12/30 06:53:34;;;;;;;26.00;6.18;;;9.30;99.90;;;;;;4958096;28;20023;-73
2021/12/30 06:56:00;;;;;;;24.95;6.15;;;9.30;99.90;;;;;;4962475;28;20031;-73
2021/12/30 06:58:25;;;;;;;23.65;5.68;;;9.30;99.90;;;;;;4960526;28;20057;-74
2021/12/30 07:00:51;;;;;;;27.13;5.75;;;9.40;99.90;;;;;;4965261;28;20074;-73
2021/12/30 07:03:17;;;;;;;19.75;6.05;;;9.40;99.90;;;;;;4962076;28;20027;-74
2021/12/30 07:05:43;;;;;;;23.23;5.90;;;9.30;99.90;;;;;;4281163;28;10001121;-74
2021/12/30 07:08:09;;;;;;;22.05;5.95;;;9.30;99.90;;;;;;4976204;28;20050;-73
2021/12/30 07:10:35;;;;;;;18.52;5.95;;;9.30;99.90;;;;;;4975029;28;20045;-73
2021/12/30 07:13:00;;;;;;;16.75;5.30;;;9.30;99.90;;;;;;4987100;28;20030;-73
2021/12/30 07:15:26;;;;;;;22.20;5.80;;;9.40;99.90;;;;;;4979956;28;20449;-74
2021/12/30 07:17:51;;;;;;;23.60;5.38;;;9.40;99.90;;;;;;4972823;28;20133;-74
2021/12/30 07:20:17;;;;;;;17.25;5.35;;;9.40;99.90;;;;;;4976523;28;20600;-73
2021/12/30 07:22:43;;;;;;;23.90;6.18;;;9.40;99.90;;;;;;4983537;28;20031;-73
2021/12/30 07:25:16;;;;;;;22.05;5.75;;;9.40;99.90;;;;;;4979270;28;20054;-74
2021/12/30 07:27:49;;;;;;;17.55;4.43;;;9.40;99.90;;;;;;4974066;28;20600;-73
2021/12/30 07:30:15;;;;;;;18.58;4.47;;;9.40;99.90;;;;;;4972723;28;20031;-73
2021/12/30 07:32:40;;;;;;;17.75;4.82;;;9.40;99.90;;;;;;4977746;28;20040;-73
2021/12/30 07:35:06;;;;;;;20.85;5.72;;;9.40;99.90;;;;;;4973118;28;20026;-73
2021/12/30 07:37:32;;;;;;;24.60;8.77;;;9.40;99.90;;;;;;4968280;28;20510;-73
2021/12/30 07:39:58;;;;;;;15.40;5.70;;;9.40;99.90;;;;;;4959563;28;20035;-73
2021/12/30 07:42:24;;;;;;;17.55;6.15;;;9.40;99.90;;;;;;4958913;28;20505;-73
2021/12/30 07:44:49;;;;;;;20.65;5.78;;;9.40;99.90;;;;;;4962156;28;20030;-73
2021/12/30 07:47:15;;;;;;;16.42;6.93;;;9.40;99.90;;;;;;4965883;28;20061;-76
2021/12/30 07:49:40;;;;;;;20.88;5.72;;;9.50;99.90;;;;;;4959742;28;20031;-74
2021/12/30 07:52:07;;;;;;;15.07;5.13;;;9.40;99.90;;;;;;4960444;28;20037;-73
2021/12/30 07:54:33;;;;;;;21.65;7.40;;;9.40;99.90;;;;;;4968430;28;20383;-73
2021/12/30 07:56:59;;;;;;;26.48;8.65;;;9.40;99.90;;;;;;4956678;28;20019;-73
2021/12/30 07:59:25;;;;;;;23.70;7.15;;;9.40;99.90;;;;;;4961477;28;20030;-72
2021/12/30 08:01:51;;;;;;;19.42;6.38;;;9.40;99.90;;;;;;4960810;28;20376;-73
2021/12/30 08:04:16;;;;;;;25.25;6.03;;;9.40;99.90;;;;;;4955803;28;20043;-74
2021/12/30 08:06:42;;;;;;;17.25;5.90;;;9.40;99.90;;;;;;4959921;28;20035;-75
2021/12/30 08:09:11;;;;;;;23.70;9.38;;;9.50;99.90;;;;;;4959925;28;20192;-74
2021/12/30 08:11:36;;;;;;;22.88;8.38;;;9.50;99.90;;;;;;4963849;28;20019;-74
2021/12/30 08:14:02;;;;;;;18.52;7.80;;;9.50;99.90;;;;;;4961982;28;20224;-73
2021/12/30 08:16:29;;;;;;;19.42;8.38;;;9.50;99.90;;;;;;4964060;28;20105;-74
2021/12/30 08:18:54;;;;;;;20.08;7.80;;;9.50;99.90;;;;;;4963069;28;20034;-74
2021/12/30 08:21:20;;;;;;;16.95;7.50;;;9.50;99.90;;;;;;4972015;28;20050;-74
2021/12/30 08:23:47;;;;;;;21.27;9.82;;;9.50;99.90;;;;;;4965312;28;20023;-74
2021/12/30 08:26:13;;;;;;;31.08;10.68;;;9.50;99.90;;;;;;4968458;28;20034;-74
2021/12/30 08:28:38;;;;;;;19.58;11.15;;;9.50;99.90;;;;;;4971228;28;20462;-74
2021/12/30 08:31:04;;;;;;;25.92;10.13;;;9.50;99.90;;;;;;4964231;28;20026;-74
2021/12/30 08:33:30;;;;;;;20.65;5.80;;;9.50;99.90;;;;;;4964898;28;20061;-74
2021/12/30 08:35:56;;;;;;;17.50;7.43;;;9.50;99.90;;;;;;4957491;28;20101;-73
2021/12/30 08:38:22;;;;;;;16.50;5.97;;;9.60;99.90;;;;;;4968021;28;20368;-74
2021/12/30 08:40:48;;;;;;;14.45;5.47;;;9.60;99.90;;;;;;4969906;28;20077;-74
2021/12/30 08:43:16;;;;;;;16.80;7.80;;;9.60;99.90;;;;;;4965707;28;20035;-74
2021/12/30 08:45:42;;;;;;;18.52;5.45;;;9.50;99.90;;;;;;4967433;28;20031;-74
2021/12/30 08:48:08;;;;;;;15.20;5.03;;;9.60;99.90;;;;;;4964706;28;20598;-74
2021/12/30 08:50:34;;;;;;;13.88;5.47;;;9.60;99.90;;;;;;4955235;28;20362;-74
2021/12/30 08:53:00;;;;;;;13.75;5.57;;;9.60;99.90;;;;;;4966141;28;20393;-74
2021/12/30 08:55:26;;;;;;;18.73;7.07;;;9.70;99.90;;;;;;4965754;28;20336;-74
2021/12/30 08:57:51;;;;;;;15.43;6.47;;;9.70;99.90;;;;;;4966034;28;20030;-74
2021/12/30 09:00:29;;;;;;;19.77;9.30;;;9.70;99.90;;;;;;4968986;28;20602;-75
2021/12/30 09:02:57;;;;;;;23.05;10.60;;;9.80;99.90;;;;;;4960814;28;20436;-74
2021/12/30 09:05:23;;;;;;;20.63;10.02;;;9.80;99.90;;;;;;4967732;28;20474;-74
2021/12/30 09:07:50;;;;;;;21.83;11.55;;;9.80;99.90;;;;;;4961816;28;20047;-74
2021/12/30 09:10:18;;;;;;;17.38;9.40;;;9.90;99.90;;;;;;4965803;28;20668;-74
2021/12/30 09:12:45;;;;;;;17.02;9.65;;;10.00;99.90;;;;;;4970578;28;20160;-74
2021/12/30 09:15:12;;;;;;;18.05;8.93;;;;;;;;;;4963763;28;20027;-74
2021/12/30 09:17:39;;;;;;;19.33;8.15;;;10.00;99.90;;;;;;4965629;28;20031;-74
2021/12/30 09:20:07;;;;;;;11.07;6.55;;;10.10;99.90;;;;;;4964636;28;20042;-74
2021/12/30 09:22:33;;;;;;;15.25;5.70;;;10.20;99.90;;;;;;4967918;28;20447;-75
2021/12/30 09:24:59;;;;;;;10.90;4.95;;;10.20;99.90;;;;;;4963822;28;20109;-75
2021/12/30 09:27:25;;;;;;;14.02;7.10;;;10.30;99.90;;;;;;4962122;28;20035;-75
2021/12/30 09:29:51;;;;;;;15.20;7.40;;;10.30;99.90;;;;;;4960312;28;20391;-77
2021/12/30 09:32:17;;;;;;;15.90;8.13;;;10.30;99.90;;;;;;4953746;28;20102;-77
2021/12/30 09:34:42;;;;;;;17.60;8.07;;;10.40;99.90;;;;;;4963622;28;20109;-77
2021/12/30 09:37:10;;;;;;;16.15;7.78;;;10.50;99.90;;;;;;4285310;28;10000997;-81
2021/12/30 09:39:37;;;;;;;19.13;8.18;;;10.50;99.90;;;;;;4977246;28;20085;-81
2021/12/30 09:42:04;;;;;;;16.75;8.30;;;10.60;99.90;;;;;;4976792;28;20089;-81
2021/12/30 09:44:30;;;;;;;11.05;5.78;;;10.60;99.90;;;;;;4976696;28;20037;-81
2021/12/30 09:46:56;;;;;;;11.00;6.60;;;10.70;99.90;;;;;;4968845;28;20039;-80
2021/12/30 09:49:24;;;;;;;12.63;5.13;;;10.70;99.90;;;;;;4978837;28;20253;-81
2021/12/30 09:51:50;;;;;;;5.30;3.30;;;10.80;99.90;;;;;;4971445;28;20026;-81
2021/12/30 09:54:16;;;;;;;7.28;3.88;;;10.80;99.90;;;;;;4980336;28;20050;-82
2021/12/30 09:56:44;;;;;;;9.85;4.95;;;10.90;99.90;;;;;;4973987;28;20302;-82
2021/12/30 09:59:10;;;;;;;5.57;3.75;;;10.90;99.90;;;;;;4973930;28;20046;-81
2021/12/30 10:01:39;;;;;;;7.45;3.60;;;10.90;99.90;;;;;;4977273;28;20525;-84
2021/12/30 10:04:06;;;;;;;9.05;3.88;;;11.00;99.90;;;;;;4975676;28;20076;-84
2021/12/30 10:06:33;;;;;;;4.25;3.38;;;11.00;99.90;;;;;;4976489;28;20346;-82
2021/12/30 10:09:12;;;;;;;7.20;3.67;;;11.00;99.90;;;;;;4971111;28;20047;-83
2021/12/30 10:12:04;;;;;;;6.18;3.72;;;11.00;99.90;;;;;;4960274;28;20027;-84
2021/12/30 10:14:34;;;;;;;5.75;3.85;;;11.10;99.90;;;;;;4950934;28;20031;-83
2021/12/30 10:17:20;;;;;;;6.68;4.47;;;11.10;99.90;;;;;;4961830;28;20041;-84
2021/12/30 10:19:46;;;;;;;10.55;7.57;;;;;;;;;;4955247;28;20031;-83
2021/12/30 10:22:17;;;;;;;8.80;6.18;;;11.20;99.90;;;;;;4961114;28;20042;-81
2021/12/30 10:24:44;;;;;;;5.90;4.40;;;11.30;99.90;;;;;;4960371;28;20038;-82
2021/12/30 10:27:21;;;;;;;5.65;3.33;;;11.30;99.90;;;;;;4962550;28;20076;-83
2021/12/30 10:29:48;;;;;;;7.38;3.40;;;11.30;99.90;;;;;;4951040;28;20034;-83
2021/12/30 10:32:23;;;;;;;6.47;3.83;;;11.30;99.90;;;;;;4959860;28;20030;-83
2021/12/30 10:35:05;;;;;;;5.97;4.00;;;;;;;;;;4968100;28;20026;-83
2021/12/30 10:37:31;;;;;;;5.07;4.53;;;;;;;;;;4970039;28;20031;-84
2021/12/30 10:39:58;;;;;;;6.32;4.40;;;;;;;;;;4960118;28;20441;-83
2021/12/30 10:42:25;;;;;;;6.18;3.40;;;;;;;;;;4956145;28;20027;-84
2021/12/30 10:44:56;;;;;;;5.93;3.88;;;;;;;;;;4960174;28;20082;-82
2021/12/30 10:47:25;;;;;;;2.97;2.65;;;;;;;;;;4958383;28;20104;-86
2021/12/30 10:49:59;;;;;;;2.78;2.58;;;;;;;;;;4965346;28;20236;-82
2021/12/30 10:52:26;;;;;;;3.53;2.13;;;;;;;;;;4963273;28;20042;-83
2021/12/30 10:54:52;;;;;;;2.05;1.80;;;;;;;;;;4950753;28;20027;-83
2021/12/30 10:57:18;;;;;;;2.00;1.40;;;;;;;;;;4953440;28;20403;-82
2021/12/30 10:59:48;;;;;;;2.22;1.13;;;12.40;99.90;;;;;;4957712;28;20062;-82
2021/12/30 11:02:16;;;;;;;5.78;1.75;;;;;;;;;;4962711;28;20058;-83
2021/12/30 11:04:43;;;;;;;2.25;1.23;;;12.50;99.90;;;;;;4957076;28;20022;-81
2021/12/30 11:07:12;;;;;;;1.85;1.20;;;12.60;99.90;;;;;;4958783;28;20098;-82
2021/12/30 11:09:49;;;;;;;2.17;1.10;;;12.60;99.90;;;;;;4954825;28;20035;-79
2021/12/30 11:12:16;;;;;;;1.63;0.90;;;12.70;99.90;;;;;;4956713;28;20150;-80
2021/12/30 11:14:42;;;;;;;2.80;1.23;;;12.80;99.90;;;;;;4959996;28;20039;-80
2021/12/30 11:17:12;;;;;;;3.75;1.23;;;12.90;99.90;;;;;;4964015;28;20034;-79
2021/12/30 11:19:42;;;;;;;3.35;0.82;;;12.80;99.90;;;;;;4956150;28;20030;-80
2021/12/30 11:22:23;;;;;;;3.85;2.28;;;12.90;99.90;;;;;;4961905;28;20057;-80
2021/12/30 11:24:51;;;;;;;2.80;2.50;;;12.90;99.90;;;;;;4959463;28;20030;-79
2021/12/30 11:27:18;;;;;;;1.10;1.10;;;12.90;99.90;;;;;;4959489;28;20582;-81
2021/12/30 11:29:46;;;;;;;0.98;0.85;;;12.90;99.90;;;;;;4957550;28;20034;-82
2021/12/30 11:32:16;;;;;;;2.47;1.80;;;13.00;99.90;;;;;;4961723;28;20470;-81
2021/12/30 11:34:42;;;;;;;0.85;0.85;;;13.00;99.90;;;;;;4963648;28;20082;-79
2021/12/30 11:37:08;;;;;;;0.95;0.90;;;12.90;99.90;;;;;;4960716;28;20027;-80
2021/12/30 11:39:34;;;;;;;2.80;1.05;;;12.90;99.90;;;;;;4954039;28;20031;-80
2021/12/30 11:42:09;;;;;;;2.47;0.98;;;12.90;99.90;;;;;;4965272;28;20155;-80
2021/12/30 11:44:45;;;;;;;2.92;1.27;;;12.90;99.90;;;;;;4963608;28;20038;-80
2021/12/30 11:47:33;;;;;;;2.15;0.95;;;12.90;99.90;;;;;;4954364;28;20713;-79
2021/12/30 11:50:09;;;;;;;1.33;0.90;;;12.90;99.90;;;;;;4961412;28;20033;-79
2021/12/30 11:52:46;;;;;;;3.00;1.92;;;12.90;99.90;;;;;;4962258;28;20048;-80
2021/12/30 11:55:48;;;;;;;5.50;2.33;;;12.90;99.90;;;;;;4955862;28;20047;-80
2021/12/30 11:58:31;;;;;;;2.53;1.80;;;12.80;99.90;;;;;;4960046;28;20038;-79
2021/12/30 12:01:25;;;;;;;5.38;3.10;;;12.90;99.90;;;;;;4953061;28;20046;-80
2021/12/30 12:03:54;;;;;;;5.05;3.10;;;12.90;99.90;;;;;;4957395;28;22318;-78
2021/12/30 12:06:25;;;;;;;5.35;2.63;;;12.90;99.90;;;;;;4961725;28;20364;-78
2021/12/30 12:08:54;;;;;;;8.80;5.55;;;12.90;99.90;;;;;;4959218;28;20543;-79
2021/12/30 12:11:25;;;;;;;5.82;3.40;;;12.90;99.90;;;;;;4953436;28;20031;-79
2021/12/30 12:13:54;;;;;;;5.18;2.50;;;12.90;99.90;;;;;;4947005;28;20078;-79
2021/12/30 12:16:41;;;;;;;3.53;1.50;;;13.00;99.90;;;;;;4954734;28;20100;-81
2021/12/30 12:19:09;;;;;;;6.70;3.78;;;13.00;99.90;;;;;;4958846;28;20030;-80
2021/12/30 12:21:42;;;;;;;4.85;2.83;;;13.00;99.90;;;;;;4959741;28;20030;-80
2021/12/30 12:24:28;;;;;;;;;;;13.00;99.90;;;;;;4956685;28;20506;-80
2021/12/30 12:26:59;;;;;;;5.00;3.90;;;13.00;99.90;;;;;;4960616;28;19918;-79
2021/12/30 12:29:32;;;;;;;2.40;1.48;;;13.00;99.90;;;;;;4953733;28;20059;-80
2021/12/30 12:32:05;;;;;;;3.80;2.40;;;13.00;99.90;;;;;;4963038;28;20050;-81
2021/12/30 12:34:40;;;;;;;3.22;2.30;;;13.00;99.90;;;;;;4956048;28;20034;-82
2021/12/30 12:37:40;;;;;;;3.42;2.30;;;13.00;99.90;;;;;;4962904;28;20540;-80
2021/12/30 12:40:10;;;;;;;2.75;1.40;;;13.10;99.90;;;;;;4959728;28;20090;-83
2021/12/30 12:42:53;;;;;;;3.13;1.70;;;13.20;99.90;;;;;;4964493;28;20045;-83
2021/12/30 12:45:59;;;;;;;4.18;2.28;;;13.20;99.90;;;;;;4953067;28;20082;-82
2021/12/30 12:48:31;;;;;;;2.97;1.80;;;13.20;99.90;;;;;;4923706;29;20051;-80
2021/12/30 12:50:59;;;;;;;9.90;8.68;;;13.10;99.90;;;;;;4922620;29;20180;-79
2021/12/30 12:53:28;;;;;;;9.35;6.07;;;13.10;99.90;;;;;;4943133;28;20476;-81